Ivs Kestrel — 9V2398 — position and weather

sailwx.info

Track history (hours):
 
Tides and Currents Weather Stations Pressure Air Temp Water Temp Dewpoint Dewpoint Depression Visibility Wind Speed Wind Dir Waves Ship Positions

Ivs Kestrel

Last reported at 2018-Jun-14 19:59 UTC. Time now 2018-Jul-19 19:27 UTC.
Position N 01°27' E 104°35'.
Warning: this ship's position is 34 days out of date.

Length 171 m; draft 9.7 m.

Type: Cargo ship. MMSI: 564634000.

Date/timePositionNaut miles runAvg speedWind from/ knotsBaromVisibWave heightAir tempDewpointWater temp
2018-Jun-14 19:59N 01°27' E 104°35'814.3
2018-Jun-14 19:27N 01°24' E 104°28'715.7
2018-Jun-14 18:58N 01°19' E 104°22'714.6
2018-Jun-14 18:28N 01°17' E 104°16'714.9
2018-Jun-14 18:00N 01°16' E 104°09'714.0
2018-Jun-14 17:30N 01°15' E 104°02'510.4
2018-Jun-14 17:00N 01°16' E 103°57'3 5.6
2018-Jun-14 16:29N 01°16' E 103°54'0 0.0
2018-Jun-14 16:00N 01°16' E 103°54'0 0.2
2018-Jun-14 15:15N 01°16' E 103°54'0 0.2
2018-Jun-14 15:00N 01°16' E 103°54'0 0.1
2018-Jun-14 14:27N 01°16' E 103°54'0 0.0
2018-Jun-14 14:00N 01°16' E 103°54'0 0.0
2018-Jun-14 13:30N 01°16' E 103°54'0 0.0
2018-Jun-14 13:00N 01°16' E 103°54'0 0.0
2018-Jun-14 12:30N 01°16' E 103°54'0 0.0
2018-Jun-14 12:00N 01°16' E 103°54'0 0.0
2018-Jun-14 11:29N 01°16' E 103°54'0 0.0
2018-Jun-14 11:00N 01°16' E 103°54'0 0.0
2018-Jun-14 10:06N 01°16' E 103°54'0 0.0
2018-Jun-14 09:57N 01°16' E 103°54'0 0.0
2018-Jun-14 09:18N 01°16' E 103°54'0 0.2
2018-Jun-14 09:00N 01°16' E 103°54'1 2.4
2018-Jun-14 08:30N 01°16' E 103°55'2 4.4
2018-Jun-14 08:00N 01°15' E 103°57'2 4.9
2018-Jun-14 07:30N 01°13' E 103°56'5 9.2
2018-Jun-14 07:00N 01°11' E 103°52'4 7.6
2018-Jun-14 06:30N 01°10' E 103°48'4 8.2
2018-Jun-14 06:00N 01°07' E 103°45'5 9.6
2018-Jun-14 05:31N 01°04' E 103°42'4 8.2
2018-Jun-14 05:00N 01°03' E 103°38'510.1
2018-Jun-14 04:29N 01°06' E 103°33'510.6
2018-Jun-14 04:00N 01°09' E 103°29'612.3
2018-Jun-14 03:30N 01°12' E 103°24'713.2
2018-Jun-14 02:58N 01°17' E 103°18'813.3
2018-Jun-14 02:22N 01°22' E 103°12'  
Track history (hours):
 
Tides and Currents Weather Stations Pressure Air Temp Water Temp Dewpoint Dewpoint Depression Visibility Wind Speed Wind Dir Waves Ship Positions

Ivs Kestrel

Last reported at 2018-Jun-14 19:59 UTC. Time now 2018-Jul-19 19:27 UTC.
Position N 01°27' E 104°35'.
Warning: this ship's position is 34 days out of date.

Length 171 m; draft 9.7 m.

Type: Cargo ship. MMSI: 564634000.

Date/timePositionNaut miles runAvg speedWind from/ knotsBaromVisibWave heightAir tempDewpointWater temp
2018-Jun-14 19:59N 01°27' E 104°35'814.3
2018-Jun-14 19:27N 01°24' E 104°28'715.7
2018-Jun-14 18:58N 01°19' E 104°22'714.6
2018-Jun-14 18:28N 01°17' E 104°16'714.9
2018-Jun-14 18:00N 01°16' E 104°09'714.0
2018-Jun-14 17:30N 01°15' E 104°02'510.4
2018-Jun-14 17:00N 01°16' E 103°57'3 5.6
2018-Jun-14 16:29N 01°16' E 103°54'0 0.0
2018-Jun-14 16:00N 01°16' E 103°54'0 0.2
2018-Jun-14 15:15N 01°16' E 103°54'0 0.2
2018-Jun-14 15:00N 01°16' E 103°54'0 0.1
2018-Jun-14 14:27N 01°16' E 103°54'0 0.0
2018-Jun-14 14:00N 01°16' E 103°54'0 0.0
2018-Jun-14 13:30N 01°16' E 103°54'0 0.0
2018-Jun-14 13:00N 01°16' E 103°54'0 0.0
2018-Jun-14 12:30N 01°16' E 103°54'0 0.0
2018-Jun-14 12:00N 01°16' E 103°54'0 0.0
2018-Jun-14 11:29N 01°16' E 103°54'0 0.0
2018-Jun-14 11:00N 01°16' E 103°54'0 0.0
2018-Jun-14 10:06N 01°16' E 103°54'0 0.0
2018-Jun-14 09:57N 01°16' E 103°54'0 0.0
2018-Jun-14 09:18N 01°16' E 103°54'0 0.2
2018-Jun-14 09:00N 01°16' E 103°54'1 2.4
2018-Jun-14 08:30N 01°16' E 103°55'2 4.4
2018-Jun-14 08:00N 01°15' E 103°57'2 4.9
2018-Jun-14 07:30N 01°13' E 103°56'5 9.2
2018-Jun-14 07:00N 01°11' E 103°52'4 7.6
2018-Jun-14 06:30N 01°10' E 103°48'4 8.2
2018-Jun-14 06:00N 01°07' E 103°45'5 9.6
2018-Jun-14 05:31N 01°04' E 103°42'4 8.2
2018-Jun-14 05:00N 01°03' E 103°38'510.1
2018-Jun-14 04:29N 01°06' E 103°33'510.6
2018-Jun-14 04:00N 01°09' E 103°29'612.3
2018-Jun-14 03:30N 01°12' E 103°24'713.2
2018-Jun-14 02:58N 01°17' E 103°18'813.3
2018-Jun-14 02:22N 01°22' E 103°12'  

Dump ship's entire track history